createdAt,value
2023-04-16T00:02:11.686Z,1.02
2023-04-16T00:05:14.891Z,1.00
2023-04-16T00:08:16.974Z,1.23
2023-04-16T00:11:19.098Z,1.00
2023-04-16T00:14:20.910Z,0.85
2023-04-16T00:17:22.850Z,0.65
2023-04-16T00:20:24.760Z,0.98
2023-04-16T00:23:26.675Z,1.20
2023-04-16T00:26:28.550Z,0.90
2023-04-16T00:29:31.102Z,1.23
2023-04-16T00:32:33.140Z,0.73
2023-04-16T00:35:35.127Z,1.17
2023-04-16T00:38:37.394Z,0.97
2023-04-16T00:41:39.300Z,0.95
2023-04-16T00:44:41.266Z,1.35
2023-04-16T00:47:43.227Z,0.35
2023-04-16T00:50:45.453Z,1.15
2023-04-16T00:53:48.056Z,0.97
2023-04-16T00:56:51.041Z,0.80
2023-04-16T00:59:54.237Z,0.75
2023-04-16T01:02:56.532Z,0.73
2023-04-16T01:05:58.872Z,1.52
2023-04-16T01:09:00.806Z,2.00
2023-04-16T01:12:02.833Z,1.27
2023-04-16T01:15:05.195Z,1.00
2023-04-16T01:18:17.467Z,1.35
2023-04-16T01:21:19.347Z,1.17
2023-04-16T01:24:21.310Z,1.03
2023-04-16T01:27:23.206Z,2.00
2023-04-16T01:30:25.773Z,1.42
2023-04-16T01:33:59.974Z,1.00
2023-04-16T01:37:04.149Z,1.67
2023-04-16T01:40:06.937Z,1.67
2023-04-16T01:43:08.938Z,1.05
2023-04-16T01:46:20.504Z,1.60
2023-04-16T01:49:23.572Z,1.55
2023-04-16T01:52:25.538Z,1.48
2023-04-16T01:55:27.432Z,1.03
2023-04-16T01:58:30.265Z,1.48
2023-04-16T02:01:32.633Z,1.85
2023-04-16T02:04:34.588Z,2.00
2023-04-16T02:07:36.529Z,1.33
2023-04-16T02:10:38.522Z,0.80
2023-04-16T02:13:40.772Z,1.10
2023-04-16T02:16:42.667Z,1.38
2023-04-16T02:19:52.201Z,2.10
2023-04-16T02:22:54.574Z,1.30
2023-04-16T02:25:58.818Z,2.00
2023-04-16T02:29:01.442Z,1.42
2023-04-16T02:32:11.273Z,1.83
2023-04-16T02:35:13.474Z,1.80
2023-04-16T02:38:15.356Z,1.40
2023-04-16T02:41:17.534Z,1.20
2023-04-16T02:44:19.562Z,1.55
2023-04-16T02:47:22.862Z,1.15
2023-04-16T02:50:24.778Z,1.45
2023-04-16T02:53:26.777Z,1.98
2023-04-16T02:56:28.714Z,1.57
2023-04-16T02:59:30.785Z,1.17
2023-04-16T03:02:32.998Z,1.10
2023-04-16T03:05:35.039Z,2.15
2023-04-16T03:08:36.906Z,1.38
2023-04-16T03:11:38.967Z,1.53
2023-04-16T03:14:41.242Z,1.10
2023-04-16T03:17:43.190Z,2.08
2023-04-16T03:20:45.459Z,1.90
2023-04-16T03:23:47.859Z,1.75
2023-04-16T03:26:49.828Z,1.77
2023-04-16T03:29:52.535Z,1.80
2023-04-16T03:32:54.491Z,1.27
2023-04-16T03:35:59.420Z,2.00
2023-04-16T03:39:04.942Z,1.60
2023-04-16T03:42:07.109Z,1.30
2023-04-16T03:45:10.614Z,1.83
2023-04-16T03:48:13.989Z,1.75
2023-04-16T03:51:16.176Z,1.30
2023-04-16T03:54:18.723Z,1.80
2023-04-16T03:57:26.605Z,1.30
2023-04-16T04:00:32.583Z,2.10
2023-04-16T04:03:46.675Z,1.67
2023-04-16T04:06:49.043Z,0.90
2023-04-16T04:09:51.365Z,1.30
2023-04-16T04:12:53.362Z,0.93
2023-04-16T04:15:55.914Z,1.17
2023-04-16T04:19:00.154Z,1.77
2023-04-16T04:22:02.398Z,1.55
2023-04-16T04:25:04.697Z,1.38
2023-04-16T04:28:07.971Z,1.13
2023-04-16T04:31:10.083Z,1.55
2023-04-16T04:34:12.102Z,1.88
2023-04-16T04:37:13.941Z,1.20
2023-04-16T04:40:16.071Z,1.13
2023-04-16T04:43:22.130Z,1.47
2023-04-16T04:46:25.439Z,1.40
2023-04-16T04:49:27.493Z,1.35
2023-04-16T04:52:29.760Z,1.25
2023-04-16T04:55:31.687Z,1.88
2023-04-16T04:58:34.208Z,0.90
2023-04-16T05:01:36.955Z,1.35
2023-04-16T05:04:38.888Z,1.77
2023-04-16T05:07:41.033Z,0.95
2023-04-16T05:10:43.067Z,0.73
2023-04-16T05:13:44.928Z,0.97
2023-04-16T05:16:46.930Z,1.30
2023-04-16T05:19:49.094Z,1.20
2023-04-16T05:22:51.456Z,1.90
2023-04-16T05:25:53.322Z,1.77
2023-04-16T05:28:55.260Z,1.60
2023-04-16T05:31:57.166Z,1.45
2023-04-16T05:34:59.122Z,2.55
2023-04-16T05:38:01.078Z,1.75
2023-04-16T05:41:02.969Z,1.15
2023-04-16T05:44:05.120Z,1.67
2023-04-16T05:47:09.329Z,1.80
2023-04-16T05:50:11.386Z,1.50
2023-04-16T05:53:14.295Z,1.15
2023-04-16T05:56:16.268Z,1.23
2023-04-16T05:59:18.648Z,2.03
2023-04-16T06:02:20.900Z,1.20
2023-04-16T06:05:22.869Z,1.23
2023-04-16T06:08:25.120Z,1.45
2023-04-16T06:11:27.621Z,1.63
2023-04-16T06:14:29.576Z,1.03
2023-04-16T06:17:31.611Z,1.67
2023-04-16T06:20:33.779Z,1.65
2023-04-16T06:23:36.329Z,1.67
2023-04-16T06:26:38.215Z,2.25
2023-04-16T06:29:41.867Z,1.20
2023-04-16T06:32:44.560Z,2.08
2023-04-16T06:35:46.491Z,1.60
2023-04-16T06:38:48.321Z,1.27
2023-04-16T06:41:50.324Z,1.35
2023-04-16T06:44:53.416Z,2.10
2023-04-16T06:47:55.344Z,0.95
2023-04-16T06:50:57.374Z,1.25
2023-04-16T06:53:59.680Z,1.30
2023-04-16T06:57:01.605Z,1.30
2023-04-16T07:00:05.149Z,1.50
2023-04-16T07:03:07.282Z,1.25
2023-04-16T07:06:10.341Z,1.17
2023-04-16T07:09:12.515Z,1.20
2023-04-16T07:12:14.563Z,1.10
2023-04-16T07:15:16.896Z,1.23
2023-04-16T07:18:20.318Z,1.00
2023-04-16T07:21:22.815Z,0.98
2023-04-16T07:24:24.805Z,0.90
2023-04-16T07:27:27.210Z,0.98
2023-04-16T07:30:34.179Z,1.67
2023-04-16T07:33:36.452Z,0.80
2023-04-16T07:36:38.936Z,1.33
2023-04-16T07:39:41.412Z,1.10
2023-04-16T07:42:43.480Z,0.98
2023-04-16T07:45:45.581Z,1.20
2023-04-16T07:48:47.591Z,0.90
2023-04-16T07:51:49.640Z,1.27
2023-04-16T07:54:51.910Z,1.17
2023-04-16T07:57:54.054Z,1.10
2023-04-16T08:00:56.325Z,1.20
2023-04-16T08:03:58.560Z,1.20
2023-04-16T08:07:00.601Z,1.02
2023-04-16T08:10:02.618Z,1.15
2023-04-16T08:13:04.631Z,1.10
2023-04-16T08:16:06.835Z,0.90
2023-04-16T08:19:09.113Z,1.35
2023-04-16T08:22:12.775Z,1.40
2023-04-16T08:25:15.537Z,1.40
2023-04-16T08:28:17.421Z,1.05
2023-04-16T08:31:19.601Z,1.30
2023-04-16T08:34:21.650Z,1.50
2023-04-16T08:37:23.508Z,1.10
2023-04-16T08:40:28.685Z,0.93
2023-04-16T08:43:34.701Z,1.13
2023-04-16T08:46:37.891Z,1.63
2023-04-16T08:49:45.165Z,1.33
2023-04-16T08:53:11.135Z,1.10
2023-04-16T08:56:14.774Z,1.30
2023-04-16T08:59:17.463Z,1.30
2023-04-16T09:02:19.730Z,1.40
2023-04-16T09:05:25.629Z,1.23
2023-04-16T09:08:28.178Z,0.77
2023-04-16T09:11:30.427Z,1.30
2023-04-16T09:14:32.717Z,0.90
2023-04-16T09:17:35.082Z,1.30
2023-04-16T09:20:37.015Z,0.90
2023-04-16T09:23:40.111Z,1.05
2023-04-16T09:26:45.700Z,0.98
2023-04-16T09:29:47.667Z,0.73
2023-04-16T09:32:51.526Z,1.10
2023-04-16T09:35:53.495Z,1.00
2023-04-16T09:38:57.488Z,1.05
2023-04-16T09:41:59.927Z,0.90
2023-04-16T09:45:04.871Z,1.60
2023-04-16T09:48:07.737Z,0.70
2023-04-16T09:51:09.727Z,0.80
2023-04-16T09:54:11.684Z,0.50
2023-04-16T09:57:13.679Z,0.77
2023-04-16T10:00:18.813Z,0.65
2023-04-16T10:03:32.478Z,0.87
2023-04-16T10:06:34.568Z,0.70
2023-04-16T10:09:38.515Z,0.60
2023-04-16T10:12:41.069Z,0.60
2023-04-16T10:15:43.599Z,0.80
2023-04-16T10:18:47.413Z,0.83
2023-04-16T10:21:51.378Z,0.95
2023-04-16T10:24:54.457Z,0.73
2023-04-16T10:27:57.399Z,0.90
2023-04-16T10:31:01.607Z,0.80
2023-04-16T10:34:04.137Z,0.90
2023-04-16T10:37:05.981Z,0.60
2023-04-16T10:40:28.212Z,0.73
2023-04-16T10:43:39.114Z,0.98
2023-04-16T10:46:42.983Z,1.50
2023-04-16T10:49:48.215Z,0.80
2023-04-16T10:53:20.657Z,0.65
2023-04-16T10:56:27.669Z,0.50
2023-04-16T10:59:35.021Z,0.82
2023-04-16T11:02:41.321Z,0.73
2023-04-16T11:05:49.044Z,1.00
2023-04-16T11:08:55.088Z,1.20
2023-04-16T11:11:57.660Z,0.70
2023-04-16T11:15:08.334Z,0.65
2023-04-16T11:18:10.918Z,1.05
2023-04-16T11:21:13.548Z,0.70
2023-04-16T11:24:15.419Z,0.80
2023-04-16T11:27:17.490Z,1.00
2023-04-16T11:30:28.543Z,0.73
2023-04-16T11:33:31.616Z,0.70
2023-04-16T11:36:50.621Z,0.70
2023-04-16T11:39:53.176Z,0.90
2023-04-16T11:42:55.079Z,0.65
2023-04-16T11:45:57.063Z,0.63
2023-04-16T11:48:59.950Z,0.82
2023-04-16T11:52:02.171Z,0.70
2023-04-16T11:55:04.403Z,1.00
2023-04-16T11:58:13.671Z,0.68
2023-04-16T12:01:21.072Z,0.60
2023-04-16T12:04:27.467Z,0.80
2023-04-16T12:07:29.608Z,0.70
2023-04-16T12:10:35.203Z,0.90
2023-04-16T12:13:40.209Z,0.70
2023-04-16T12:16:42.335Z,0.70
2023-04-16T12:20:00.238Z,0.60
2023-04-16T12:23:02.216Z,0.60
2023-04-16T12:26:10.836Z,0.70
2023-04-16T12:29:28.067Z,0.77
2023-04-16T12:32:30.010Z,0.50
2023-04-16T12:35:33.591Z,0.88
2023-04-16T12:38:35.728Z,0.70
2023-04-16T12:41:39.285Z,0.70
2023-04-16T12:44:41.242Z,0.70
2023-04-16T12:47:43.175Z,0.60
2023-04-16T12:50:45.133Z,0.70
2023-04-16T12:53:47.042Z,0.97
2023-04-16T12:56:48.937Z,0.90
2023-04-16T12:59:51.017Z,0.70
2023-04-16T13:02:53.151Z,0.80
2023-04-16T13:05:56.992Z,1.02
2023-04-16T13:08:59.145Z,0.50
2023-04-16T13:12:01.679Z,0.80
2023-04-16T13:15:05.243Z,0.57
2023-04-16T13:18:07.186Z,0.60
2023-04-16T13:21:09.383Z,0.70
2023-04-16T13:24:11.344Z,0.70
2023-04-16T13:27:16.087Z,0.90
2023-04-16T13:30:18.172Z,0.80
2023-04-16T13:33:21.411Z,0.80
2023-04-16T13:36:24.703Z,0.70
2023-04-16T13:39:28.763Z,0.80
2023-04-16T13:42:32.592Z,0.80
2023-04-16T13:45:34.632Z,0.90
2023-04-16T13:48:37.356Z,0.70
2023-04-16T13:51:39.283Z,0.60
2023-04-16T13:54:41.532Z,0.83
2023-04-16T13:57:56.328Z,0.70
2023-04-16T14:00:58.350Z,0.40
2023-04-16T14:04:06.188Z,1.08
2023-04-16T14:07:08.442Z,0.80
2023-04-16T14:10:10.798Z,0.70
2023-04-16T14:13:13.227Z,1.00
2023-04-16T14:16:15.715Z,0.75
2023-04-16T14:19:17.833Z,1.00
2023-04-16T14:22:21.128Z,0.60
2023-04-16T14:25:23.843Z,0.90
2023-04-16T14:28:26.049Z,0.75
2023-04-16T14:31:28.445Z,0.70
2023-04-16T14:34:30.554Z,0.80
2023-04-16T14:37:35.857Z,0.68
2023-04-16T14:40:38.375Z,0.57
2023-04-16T14:43:41.429Z,0.68
2023-04-16T14:46:43.826Z,0.80
2023-04-16T14:49:45.811Z,0.70
2023-04-16T14:52:47.862Z,0.95
2023-04-16T14:55:51.921Z,0.87
2023-04-16T14:58:53.857Z,0.70
2023-04-16T15:01:59.210Z,0.80
2023-04-16T15:05:01.511Z,0.70
2023-04-16T15:08:03.926Z,0.80
2023-04-16T15:11:06.034Z,0.83
2023-04-16T15:14:08.192Z,0.50
2023-04-16T15:17:10.318Z,0.60
2023-04-16T15:20:12.811Z,0.50
2023-04-16T15:23:14.738Z,0.40
2023-04-16T15:26:16.858Z,0.60
2023-04-16T15:29:18.804Z,0.50
2023-04-16T15:32:21.143Z,0.50
2023-04-16T15:35:24.820Z,0.40
2023-04-16T15:38:28.669Z,0.57
2023-04-16T15:41:32.011Z,0.40
2023-04-16T15:44:34.722Z,1.65
2023-04-16T15:47:37.989Z,2.33
2023-04-16T15:50:41.945Z,1.45
2023-04-16T15:53:45.337Z,1.27
2023-04-16T15:56:47.615Z,0.90
2023-04-16T16:00:05.369Z,0.90
2023-04-16T16:06:27.189Z,0.90
2023-04-16T16:09:31.594Z,0.70
2023-04-16T16:12:33.766Z,0.70
2023-04-16T16:15:35.976Z,0.95
2023-04-16T16:18:38.158Z,0.93
2023-04-16T16:21:40.085Z,1.05
2023-04-16T16:24:42.295Z,1.38
2023-04-16T16:27:44.650Z,1.70
2023-04-16T16:30:47.530Z,0.88
2023-04-16T16:33:49.969Z,0.80
2023-04-16T16:36:51.995Z,0.60
2023-04-16T16:39:54.040Z,0.82
2023-04-16T16:42:56.147Z,0.70
2023-04-16T16:45:58.324Z,0.52
2023-04-16T16:49:00.993Z,0.70
2023-04-16T16:52:03.130Z,0.90
2023-04-16T16:55:08.695Z,0.82
2023-04-16T16:58:11.266Z,1.00
2023-04-16T17:01:13.751Z,0.80
2023-04-16T17:04:17.168Z,0.55
2023-04-16T17:10:36.454Z,1.13
2023-04-16T17:13:39.627Z,0.67
2023-04-16T17:16:41.746Z,1.10
2023-04-16T17:19:44.257Z,1.30
2023-04-16T17:22:46.320Z,1.20
2023-04-16T17:25:48.585Z,1.40
2023-04-16T17:28:51.065Z,0.90
2023-04-16T17:31:53.900Z,0.90
2023-04-16T17:34:56.394Z,0.70
2023-04-16T17:37:58.578Z,1.00
2023-04-16T17:41:00.561Z,0.80
2023-04-16T17:44:02.909Z,0.90
2023-04-16T17:47:05.291Z,1.00
2023-04-16T17:50:11.484Z,1.10
2023-04-16T17:53:13.662Z,1.00
2023-04-16T17:56:15.951Z,0.43
2023-04-16T17:59:17.942Z,0.50
2023-04-16T18:02:20.538Z,0.90
2023-04-16T18:05:33.070Z,0.82
2023-04-16T18:08:36.991Z,2.15
2023-04-16T18:11:39.574Z,2.00
2023-04-16T18:14:44.723Z,1.23
2023-04-16T18:17:47.093Z,0.60
2023-04-16T18:20:49.425Z,0.70
2023-04-16T18:23:51.481Z,0.50
2023-04-16T18:26:55.135Z,0.80
2023-04-16T18:29:57.497Z,0.80
2023-04-16T18:33:26.344Z,0.63
2023-04-16T18:36:22.530Z,1.15
2023-04-16T18:39:24.620Z,1.20
2023-04-16T18:42:29.616Z,0.93
2023-04-16T18:45:34.299Z,0.40
2023-04-16T18:48:36.901Z,0.70
2023-04-16T18:51:40.106Z,1.27
2023-04-16T18:54:42.320Z,0.70
2023-04-16T18:57:44.162Z,0.80
2023-04-16T19:00:46.664Z,0.83
2023-04-16T19:03:48.963Z,0.75
2023-04-16T19:06:51.173Z,0.90
2023-04-16T19:09:53.398Z,0.70
2023-04-16T19:12:58.339Z,0.77
2023-04-16T19:16:01.646Z,0.60
2023-04-16T19:19:03.712Z,1.25
2023-04-16T19:22:05.617Z,0.70
2023-04-16T19:25:08.188Z,1.40
2023-04-16T19:28:10.346Z,2.03
2023-04-16T19:31:12.570Z,3.03
2023-04-16T19:34:15.572Z,3.58
2023-04-16T19:37:17.511Z,2.58
2023-04-16T19:40:19.642Z,1.55
2023-04-16T19:43:21.597Z,0.65
2023-04-16T19:46:24.060Z,0.90
2023-04-16T19:49:26.342Z,0.70
2023-04-16T19:52:29.053Z,0.98
2023-04-16T19:55:31.290Z,0.60
2023-04-16T19:58:33.534Z,0.80
2023-04-16T20:01:36.025Z,1.20
2023-04-16T20:04:38.423Z,0.70
2023-04-16T20:07:40.760Z,0.68
2023-04-16T20:10:42.764Z,0.75
2023-04-16T20:13:48.185Z,1.10
2023-04-16T20:16:50.324Z,0.60
2023-04-16T20:19:52.736Z,1.10
2023-04-16T20:22:55.256Z,0.60
2023-04-16T20:25:57.309Z,1.15
2023-04-16T20:29:02.884Z,0.85
2023-04-16T20:32:05.863Z,0.90
2023-04-16T20:35:10.778Z,0.77
2023-04-16T20:38:13.152Z,0.93
2023-04-16T20:41:21.058Z,1.48
2023-04-16T20:44:40.280Z,1.33
2023-04-16T20:47:43.481Z,0.90
2023-04-16T20:50:46.018Z,0.88
2023-04-16T20:53:47.871Z,1.30
2023-04-16T20:56:50.415Z,1.48
2023-04-16T20:59:52.505Z,1.40
2023-04-16T21:02:54.878Z,1.43
2023-04-16T21:05:56.907Z,1.13
2023-04-16T21:08:59.117Z,1.00
2023-04-16T21:12:01.785Z,0.80
2023-04-16T21:15:04.827Z,1.63
2023-04-16T21:18:07.694Z,1.60
2023-04-16T21:21:09.659Z,1.10
2023-04-16T21:24:11.614Z,0.90
2023-04-16T21:27:13.483Z,1.50
2023-04-16T21:30:15.851Z,1.83
2023-04-16T21:33:17.803Z,0.60
2023-04-16T21:36:19.822Z,1.00
2023-04-16T21:39:22.104Z,2.17
2023-04-16T21:42:24.275Z,1.38
2023-04-16T21:45:26.242Z,1.98
2023-04-16T21:48:28.641Z,1.83
2023-04-16T21:51:30.579Z,2.30
2023-04-16T21:54:32.403Z,1.95
2023-04-16T21:57:34.422Z,1.58
2023-04-16T22:00:36.395Z,1.40
2023-04-16T22:03:40.487Z,2.40
2023-04-16T22:06:43.157Z,2.00
2023-04-16T22:09:45.033Z,1.73
2023-04-16T22:12:46.914Z,2.05
2023-04-16T22:15:48.737Z,1.92
2023-04-16T22:18:51.168Z,1.33
2023-04-16T22:21:53.101Z,2.00
2023-04-16T22:24:54.985Z,1.67
2023-04-16T22:27:56.862Z,2.13
2023-04-16T22:30:58.795Z,1.25
2023-04-16T22:34:02.847Z,1.90
2023-04-16T22:37:06.132Z,1.58
2023-04-16T22:40:09.787Z,1.58
2023-04-16T22:43:11.794Z,1.60
2023-04-16T22:46:13.646Z,1.80
2023-04-16T22:49:15.537Z,1.53
2023-04-16T22:52:17.407Z,1.80
2023-04-16T22:55:19.471Z,2.05
2023-04-16T22:58:21.927Z,1.63
2023-04-16T23:01:24.453Z,1.40
2023-04-16T23:04:26.497Z,1.30
2023-04-16T23:07:28.485Z,1.70
2023-04-16T23:10:30.325Z,1.50
2023-04-16T23:13:32.373Z,2.08
2023-04-16T23:16:34.232Z,1.60
2023-04-16T23:19:36.231Z,1.20
2023-04-16T23:22:38.312Z,1.52
2023-04-16T23:25:41.378Z,1.55
2023-04-16T23:28:43.220Z,1.60
2023-04-16T23:31:45.108Z,1.73
2023-04-16T23:34:47.174Z,1.40
2023-04-16T23:37:49.491Z,1.30
2023-04-16T23:40:51.627Z,1.35
2023-04-16T23:43:53.858Z,1.48
2023-04-16T23:46:55.719Z,1.83
2023-04-16T23:49:57.716Z,2.00
2023-04-16T23:52:59.691Z,1.52
2023-04-16T23:56:01.592Z,1.05
2023-04-16T23:59:03.514Z,1.63
